• Join FlightAware (Why Join?)
  • Login
  • US Flag 
08:47AM EDT


 

Airport Tracker/Info


-or-


 

Live Flight TrackerFlight Track Log ✈ ASH3751 ✈ 23-Jun-2013 ✈ KSAT - KIAD

Flight Track Log - Related Links

Times and Time Zones

All times are in EDT time to prevent confusion due to time zone crossing. See the ASH3751 flight status page for this flight to view local times or setup timezone preferences in your user account.

Time Position Orientation Groundspeed Altitude Reporting Facility
EDT Latitude Longitude Course Direction KTS MPH feet Rate Location/Type
12:46PM 29.5200 -98.4569 90° East 158 182 1,500  Level Houston Center
12:47PM 29.4886 -98.3989 122° Southeast 200 230 3,600 1,860 Climbing Houston Center
12:48PM 29.5092 -98.3258 72° East 248 285 5,500 2,100 Climbing Houston Center
12:49PM 29.6256 -98.0501 75° East  Level FlightAware Approximate
12:49PM 29.5319 -98.2386 73° East 265 305 8,000  Level Houston Center
12:50PM 29.6500 -97.9258 90° East  Level FlightAware Approximate
12:50PM 29.5564 -98.1544 72° East 279 321 10,100  Level Houston Center
12:51PM 29.6500 -97.7811 90° East  Level FlightAware Approximate
12:51PM 29.5847 -98.0589 71° East 293 337 12,000  Level Houston Center
12:52PM 29.6139 -97.9583 72° East 337 388 13,000 1,200 Climbing Houston Center
12:53PM 29.6472 -97.8400 72° East 361 415 14,500 1,320 Climbing Houston Center
12:54PM 29.6542 -97.7217 86° East 382 440 15,800 1,440 Climbing Houston Center
12:55PM 29.6558 -97.5994 89° East 384 442 17,500 1,500 Climbing Houston Center
12:56PM 29.6569 -97.4794 89° East 378 435 18,900 1,260 Climbing Houston Center
12:58PM 29.6500 -97.3261 90° East  Level FlightAware Approximate
12:58PM 29.6581 -97.2344 90° East 384 442 21,500  Level Houston Center
01:00PM 29.6597 -97.0803 89° East 398 458 22,700 1,080 Climbing Houston Center
01:01PM 29.6489 -96.9489 95° East 415 478 23,800 960 Climbing Houston Center
01:02PM 29.6267 -96.8181 101° East 415 478 24,800 960 Climbing Houston Center
01:03PM 29.6042 -96.6842 101° East 421 484 25,800 960 Climbing Houston Center
01:04PM 29.5889 -96.5492 97° East 423 487 26,800 960 Climbing Houston Center
01:05PM 29.5736 -96.4131 97° East 427 491 27,800 960 Climbing Houston Center
01:06PM 29.5581 -96.2769 97° East 429 494 28,800 960 Climbing Houston Center
01:07PM 29.5606 -96.1419 89° East 435 501 29,800 840 Climbing Houston Center
01:08PM 29.6308 -95.9983 61° Northeast 437 503 30,600 660 Climbing Houston Center
01:09PM 29.6842 -95.8908 60° Northeast 439 505 31,200 600 Climbing Houston Center
01:10PM 29.7594 -95.7419 60° Northeast 447 514 31,900 600 Climbing Houston Center
01:11PM 29.8233 -95.6164 60° Northeast 452 520 32,500 540 Climbing Houston Center
01:12PM 29.8878 -95.4886 60° Northeast 458 527 33,100 540 Climbing Houston Center
01:13PM 29.9578 -95.3633 57° Northeast 467 537 33,700 540 Climbing Houston Center
01:14PM 30.0592 -95.2717 38° Northeast 467 537 34,300 540 Climbing Houston Center
01:15PM 30.1636 -95.1911 34° Northeast 451 519 34,900 300 Climbing Houston Center
01:16PM 30.2722 -95.1100 33° Northeast 466 536 35,000  Climbing Houston Center
01:17PM 30.3806 -95.0283 33° Northeast 468 539 35,000  Level Houston Center
01:18PM 30.5008 -94.9331 34° Northeast 475 547 35,000  Level Houston Center
01:19PM 30.6117 -94.8472 34° Northeast 472 543 35,000  Level Houston Center
01:20PM 30.7450 -94.7447 33° Northeast 477 549 35,000  Level Houston Center
01:21PM 30.8544 -94.6586 34° Northeast 488 562 35,000  Level Houston Center
01:22PM 30.9647 -94.5733 34° Northeast 484 557 35,000  Level Houston Center
01:23PM 31.0758 -94.4883 33° Northeast 481 554 35,000  Level Houston Center
01:24PM 31.2078 -94.3853 34° Northeast 482 555 35,000  Level Houston Center
01:25PM 31.3181 -94.3008 33° Northeast 480 552 35,000  Level Houston Center
01:26PM 31.4275 -94.2167 33° Northeast 475 547 35,000  Level Houston Center
01:27PM 31.5358 -94.1317 34° Northeast 471 542 35,000  Level Houston Center
01:28PM 31.6436 -94.0461 34° Northeast 469 540 35,000  Level Houston Center
01:30PM 31.7511 -93.9614 34° Northeast 467 537 35,000  Level Houston Center
01:31PM 31.8719 -93.8653 34° Northeast 467 537 35,000  Level Houston Center
01:32PM 31.9797 -93.7797 34° Northeast 466 536 35,000  Level Houston Center
01:33PM 32.0950 -93.6886 34° Northeast 466 536 35,000  Level Houston Center
01:34PM 32.2008 -93.6033 34° Northeast 462 532 35,000  Level Houston Center
01:35PM 32.3233 -93.5058 34° Northeast 466 536 35,000  Level Houston Center
01:36PM 32.4622 -93.3878 36° Northeast 460 529 35,000  Level Fort Worth Center
01:37PM 32.5700 -93.3017 34° Northeast 460 529 35,000  Level Fort Worth Center
01:38PM 32.6778 -93.2153 34° Northeast 460 529 35,000  Level Fort Worth Center
01:39PM 32.7856 -93.1289 34° Northeast 460 529 35,000  Level Fort Worth Center
01:40PM 32.8908 -93.0397 35° Northeast 460 529 35,000  Level Fort Worth Center
01:41PM 32.9986 -92.9550 33° Northeast 465 535 35,000  Level Fort Worth Center
01:42PM 33.1039 -92.8681 35° Northeast 465 535 35,000  Level Fort Worth Center
01:43PM 33.2114 -92.7831 33° Northeast 465 535 35,000  Level Fort Worth Center
01:45PM 33.4197 -92.5025 48° Northeast 467 537 35,000  Level Memphis Center
01:46PM 33.4969 -92.3800 53° Northeast 467 537 35,000  Level Memphis Center
01:47PM 33.5739 -92.2594 53° Northeast 462 532 35,000  Level Memphis Center
01:48PM 33.6572 -92.1367 51° Northeast 462 532 35,000  Level Memphis Center
01:49PM 33.7381 -92.0158 51° Northeast 462 532 35,000  Level Memphis Center
01:50PM 33.8128 -91.8922 54° Northeast 457 526 35,000  Level Memphis Center
01:51PM 33.9019 -91.7711 48° Northeast 457 526 35,000  Level Memphis Center
01:52PM 33.9742 -91.6447 55° Northeast 457 526 35,000  Level Memphis Center
01:53PM 34.0525 -91.5231 52° Northeast 457 526 35,000  Level Memphis Center
01:54PM 34.1308 -91.3986 53° Northeast 463 533 35,000  Level Memphis Center
01:55PM 34.2089 -91.2789 52° Northeast 463 533 35,000  Level Memphis Center
01:56PM 34.2808 -91.1667 52° Northeast 463 533 35,000  Level Memphis Center
01:57PM 34.3586 -91.0414 53° Northeast 463 533 35,000  Level Memphis Center
01:58PM 34.4364 -90.9186 52° Northeast 463 533 35,000  Level Memphis Center
01:59PM 34.5142 -90.7958 52° Northeast 456 525 35,000  Level Memphis Center
02:00PM 34.5897 -90.6725 53° Northeast 456 525 35,000  Level Memphis Center
02:01PM 34.6650 -90.5542 52° Northeast 456 525 35,000  Level Memphis Center
02:02PM 34.7467 -90.4228 53° Northeast 456 525 35,000  Level Memphis Center
02:03PM 34.8236 -90.3039 52° Northeast 451 519 35,000  Level Memphis Center
02:04PM 34.8967 -90.1850 53° Northeast 442 509 35,000  Level Memphis Center
02:05PM 34.9694 -90.0656 53° Northeast 442 509 35,000  Level Memphis Center
02:06PM 35.0378 -89.9361 57° Northeast 447 514 35,000  Level Memphis Center
02:07PM 35.0853 -89.8039 66° East 452 520 35,000  Level Memphis Center
02:08PM 35.1347 -89.6614 67° East 459 528 35,000  Level Memphis Center
02:09PM 35.1839 -89.5161 67° East 459 528 35,000  Level Memphis Center
02:10PM 35.2350 -89.3708 67° East 459 528 35,000  Level Memphis Center
02:11PM 35.2900 -89.2150 67° East 459 528 35,000  Level Memphis Center
02:12PM 35.3406 -89.0692 67° East 460 529 35,000  Level Memphis Center
02:13PM 35.3933 -88.9206 66° East 454 522 35,000  Level Memphis Center
02:14PM 35.4333 -88.7925 69° East 454 522 35,000  Level Memphis Center
02:15PM 35.4856 -88.6436 67° East 454 522 35,000  Level Memphis Center
02:16PM 35.5356 -88.4944 68° East 459 528 35,000  Level Memphis Center
02:17PM 35.5875 -88.3478 66° East 459 528 35,000  Level Memphis Center
02:18PM 35.6394 -88.2011 66° East 459 528 35,000  Level Memphis Center
02:19PM 35.6869 -88.0617 67° East 452 520 35,000  Level Memphis Center
02:20PM 35.7361 -87.9147 68° East 452 520 35,000  Level Memphis Center
02:21PM 35.7853 -87.7647 68° East 462 532 35,000  Level Memphis Center
02:22PM 35.8342 -87.6172 68° East 462 532 35,000  Level Memphis Center
02:23PM 35.8831 -87.4697 68° East 455 524 35,000  Level Memphis Center
02:24PM 35.9294 -87.3219 69° East 460 529 35,000  Level Memphis Center
02:25PM 35.9819 -87.1633 68° East 452 520 35,000  Level Memphis Center
02:26PM 36.0281 -87.0128 69° East 457 526 35,000  Level Memphis Center
02:27PM 36.0758 -86.8619 69° East 457 526 35,000  Level Memphis Center
02:28PM 36.1258 -86.7133 67° East 457 526 35,000  Level Memphis Center
02:29PM 36.1883 -86.5717 61° Northeast 457 526 35,000  Level Memphis Center
02:30PM 36.2550 -86.4347 59° Northeast 462 532 35,000  Level Memphis Center
02:31PM 36.3236 -86.2975 58° Northeast 470 541 35,000  Level Memphis Center
02:32PM 36.3897 -86.1600 59° Northeast 465 535 35,000  Level Memphis Center
02:33PM 36.4539 -86.0200 60° Northeast 460 529 35,000  Level Memphis Center
02:34PM 36.5197 -85.8847 59° Northeast 460 529 35,000  Level Memphis Center
02:36PM 36.6081 -85.6983 59° Northeast 461 531 35,000  Level Indianapolis Center
02:37PM 36.6747 -85.5572 59° Northeast 468 539 35,000  Level Indianapolis Center
02:38PM 36.7536 -85.3908 59° Northeast 464 534 35,000  Level Indianapolis Center
02:39PM 36.8192 -85.2497 60° Northeast 468 539 35,000  Level Indianapolis Center
02:40PM 36.8847 -85.1078 60° Northeast 470 541 35,000  Level Indianapolis Center
02:41PM 36.9794 -85.0019 42° Northeast 461 531 35,000  Level Indianapolis Center
02:42PM 37.1089 -84.9419 20° North 455 524 35,000  Level Indianapolis Center
02:43PM 37.2250 -84.8792 23° Northeast 455 524 35,000  Level Indianapolis Center
02:44PM 37.3161 -84.7608 46° Northeast 469 540 35,000  Level Indianapolis Center
02:45PM 37.3725 -84.6089 65° Northeast 478 550 35,000  Level Indianapolis Center
02:46PM 37.4278 -84.4544 66° East 480 552 35,000  Level Indianapolis Center
02:47PM 37.4831 -84.3019 65° Northeast 480 552 35,000  Level Indianapolis Center
02:48PM 37.5478 -84.1211 66° East 484 557 35,000  Level Indianapolis Center
02:49PM 37.6022 -83.9675 66° East 476 548 35,000  Level Indianapolis Center
02:50PM 37.6583 -83.8128 65° Northeast 482 555 35,000  Level Indianapolis Center
02:51PM 37.7275 -83.6714 58° Northeast 481 554 35,000  Level Indianapolis Center
02:52PM 37.8222 -83.5508 45° Northeast 485 558 35,000  Level Indianapolis Center
02:53PM 37.9161 -83.4317 45° Northeast 477 549 35,000  Level Indianapolis Center
02:54PM 38.0094 -83.3111 45° Northeast 476 548 35,000  Level Indianapolis Center
02:56PM 38.1172 -83.1797 44° Northeast 458 527 35,000  Level Indianapolis Center
02:57PM 38.2097 -83.0642 44° Northeast 460 529 35,000  Level Indianapolis Center
02:58PM 38.3019 -82.9497 44° Northeast 460 529 35,000  Level Indianapolis Center
02:59PM 38.3597 -82.8039 63° Northeast 463 533 35,000  Level Indianapolis Center
03:00PM 38.3664 -82.6475 87° East 441 507 35,000 -720 Level Indianapolis Center
03:01PM 38.3639 -82.4872 91° East 448 516 33,600 -1,020 Descending Indianapolis Center
03:02PM 38.3608 -82.3322 91° East 442 509 33,000 -300 Descending Indianapolis Center
03:03PM 38.3575 -82.1419 91° East 447 514 33,000  Level Indianapolis Center
03:04PM 38.3553 -81.9833 91° East 449 517 33,000  Level Indianapolis Center
03:05PM 38.3519 -81.8242 91° East 453 521 33,000  Level Indianapolis Center
03:06PM 38.3467 -81.6603 92° East 464 534 33,000  Level Indianapolis Center
03:07PM 38.3408 -81.4950 93° East 470 541 33,000  Level Indianapolis Center
03:08PM 38.3347 -81.2956 92° East 474 545 33,000  Level Indianapolis Center
03:09PM 38.3292 -81.1286 92° East 475 547 33,000  Level Indianapolis Center
03:10PM 38.3222 -80.9608 93° East 477 549 33,000  Level Indianapolis Center
03:11PM 38.3161 -80.7919 93° East 481 554 33,000  Level Indianapolis Center
03:12PM 38.3111 -80.6189 92° East 489 563 33,000  Level Indianapolis Center
03:13PM 38.3167 -80.4533 87° East 482 555 33,000 -600 Level Washington Center
03:14PM 38.3506 -80.2861 75° East 482 555 31,900 -1,320 Descending Washington Center
03:15PM 38.3856 -80.1344 74° East 482 555 30,400 -1,680 Descending Washington Center
03:16PM 38.4186 -79.9722 75° East 482 555 28,700 -1,800 Descending Washington Center
03:17PM 38.4517 -79.8072 76° East 482 555 26,900 -1,740 Descending Washington Center
03:18PM 38.4822 -79.6472 76° East 475 547 25,200 -1,440 Descending Washington Center
03:19PM 38.5192 -79.4794 74° East 452 520 24,000 -660 Descending Washington Center
03:20PM 38.5425 -79.3344 78° East 431 496 24,000 -240 Level Washington Center
03:21PM 38.5653 -79.2003 78° East 426 490 23,600 -1,440 Descending Washington Center
03:22PM 38.5883 -79.0525 79° East 426 490 21,200 -2,400 Descending Washington Center
03:23PM 38.6111 -78.9128 78° East 421 484 18,800 -2,160 Descending Washington Center
03:24PM 38.6353 -78.7864 76° East 394 453 16,900 -2,040 Descending Washington Center
03:25PM 38.6658 -78.6575 73° East 374 430 14,900 -2,100 Descending Washington Center
03:26PM 38.6939 -78.5361 73° East 362 417 12,800 -1,980 Descending Washington Center
03:27PM 38.7217 -78.4175 73° East 350 403 11,000 -1,440 Descending Washington Center
03:28PM 38.7675 -78.3289 56° Northeast 328 377 10,000 -1,140 Descending Washington Center
03:29PM 38.8333 -78.2753 32° Northeast 280 322 8,800 -1,260 Descending Washington Center
03:30PM 38.9111 -78.2542 12° North 275 316 7,500 -1,260 Descending Washington Center
03:31PM 38.9644 -78.1919 42° Northeast 269 310 6,400 -780 Descending Washington Center
03:32PM 38.9731 -78.0881 84° East 233 268 6,000 -240 Descending Washington Center
03:33PM 38.9686 -77.9892 93° East 255 293 6,000  Level Washington Center
03:34PM 38.9664 -77.8903 92° East 260 299 6,000  Level Washington Center
03:36PM 38.9667 -77.7000 90° East 273 314 6,000  Level Potomac TRACON
03:37PM 38.9667 -77.6167 90° East 253 291 6,000  Level Potomac TRACON
03:38PM 39.0333 -77.5667 30° Northeast 251 289 6,000  Level Potomac TRACON
03:39PM 39.1000 -77.5667 360° North 235 270 6,000  Level Potomac TRACON
03:40PM 39.1500 -77.5667 360° North 200 230 6,000  Level Potomac TRACON
03:41PM 39.2167 -77.5667 360° North 199 229 6,000 -420 Level Potomac TRACON
03:42PM 39.2333 -77.5333 57° Northeast 223 257 5,200 -1,020 Descending Potomac TRACON
03:43PM 39.2000 -77.4667 123° Southeast 216 249 4,000 -900 Descending Potomac TRACON
03:44PM 39.1500 -77.4500 166° South 196 226 3,400 -600 Descending Potomac TRACON
03:45PM 39.1000 -77.4500 180° South 181 208 2,800 -600 Descending Potomac TRACON